createdAt,value
2022-10-12T00:01:57.917Z,10.35
2022-10-12T00:06:59.826Z,10.36
2022-10-12T00:12:01.687Z,10.34
2022-10-12T00:17:04.116Z,10.36
2022-10-12T00:22:06.157Z,10.46
2022-10-12T00:27:07.989Z,10.51
2022-10-12T00:32:10.734Z,10.55
2022-10-12T00:37:12.535Z,10.51
2022-10-12T00:42:14.434Z,10.46
2022-10-12T00:47:16.182Z,10.31
2022-10-12T00:52:22.308Z,10.29
2022-10-12T00:57:24.729Z,10.23
2022-10-12T01:02:29.795Z,10.08
2022-10-12T01:07:31.693Z,9.98
2022-10-12T01:12:35.377Z,9.98
2022-10-12T01:17:56.511Z,9.97
2022-10-12T01:23:16.945Z,10.03
2022-10-12T01:28:40.510Z,10.03
2022-10-12T01:33:59.017Z,9.91
2022-10-12T01:39:18.245Z,9.77
2022-10-12T01:44:24.050Z,9.70
2022-10-12T01:49:30.672Z,9.65
2022-10-12T01:54:47.353Z,9.76
2022-10-12T02:00:09.766Z,9.94
2022-10-12T02:05:26.760Z,10.08
2022-10-12T02:10:35.838Z,10.14
2022-10-12T02:15:40.817Z,10.11
2022-10-12T02:20:42.777Z,10.04
2022-10-12T02:25:46.458Z,9.89
2022-10-12T02:31:17.753Z,9.79
2022-10-12T02:36:34.429Z,9.77
2022-10-12T02:41:46.668Z,9.73
2022-10-12T02:46:50.357Z,9.62
2022-10-12T02:51:53.292Z,9.65
2022-10-12T02:56:55.305Z,9.67
2022-10-12T03:01:57.466Z,9.65
2022-10-12T03:06:59.255Z,9.52
2022-10-12T03:12:01.042Z,9.46
2022-10-12T03:17:02.912Z,9.35
2022-10-12T03:22:04.690Z,9.28
2022-10-12T03:27:06.475Z,9.20
2022-10-12T03:32:08.497Z,9.20
2022-10-12T03:37:10.957Z,9.24
2022-10-12T03:42:12.741Z,9.27
2022-10-12T03:47:14.582Z,9.18
2022-10-12T03:52:16.371Z,9.16
2022-10-12T03:57:18.161Z,9.12
2022-10-12T04:02:20.327Z,8.93
2022-10-12T04:07:22.186Z,8.82
2022-10-12T04:12:23.989Z,8.81
2022-10-12T04:17:25.806Z,8.83
2022-10-12T04:22:27.694Z,8.89
2022-10-12T04:27:29.534Z,8.91
2022-10-12T04:32:31.360Z,8.93
2022-10-12T04:37:33.172Z,8.97
2022-10-12T04:42:34.953Z,9.04
2022-10-12T04:47:37.018Z,9.01
2022-10-12T04:52:39.167Z,9.09
2022-10-12T04:57:41.346Z,9.11
2022-10-12T05:02:43.396Z,9.06
2022-10-12T05:07:45.197Z,8.90
2022-10-12T05:12:47.045Z,8.77
2022-10-12T05:17:48.831Z,8.81
2022-10-12T05:22:50.648Z,8.90
2022-10-12T05:27:52.694Z,8.93
2022-10-12T05:32:54.509Z,8.92
2022-10-12T05:37:56.283Z,8.85
2022-10-12T05:42:58.122Z,8.78
2022-10-12T05:47:59.939Z,8.82
2022-10-12T05:53:01.758Z,8.91
2022-10-12T05:58:03.564Z,9.11
2022-10-12T06:03:05.404Z,9.31
2022-10-12T06:08:08.877Z,9.56
2022-10-12T06:13:10.643Z,9.79
2022-10-12T06:18:13.472Z,10.03
2022-10-12T06:23:15.759Z,10.24
2022-10-12T06:28:20.329Z,10.46
2022-10-12T06:33:22.241Z,10.76
2022-10-12T06:38:24.403Z,10.99
2022-10-12T06:43:26.195Z,11.05
2022-10-12T06:48:28.145Z,11.01
2022-10-12T06:53:32.908Z,11.10
2022-10-12T06:58:36.613Z,11.11
2022-10-12T07:03:38.857Z,11.22
2022-10-12T07:08:42.204Z,11.32
2022-10-12T07:13:44.169Z,11.44
2022-10-12T07:18:46.289Z,11.65
2022-10-12T07:23:48.146Z,11.89
2022-10-12T07:28:50.018Z,12.35
2022-10-12T07:33:51.810Z,12.89
2022-10-12T07:38:53.643Z,13.38
2022-10-12T07:43:56.742Z,13.80
2022-10-12T07:48:58.631Z,14.21
2022-10-12T07:54:00.479Z,14.62
2022-10-12T07:59:02.328Z,14.91
2022-10-12T08:04:04.854Z,15.26
2022-10-12T08:09:06.716Z,15.50
2022-10-12T08:14:17.601Z,15.80
2022-10-12T08:19:19.414Z,16.11
2022-10-12T08:24:21.307Z,16.43
2022-10-12T08:29:23.098Z,16.69
2022-10-12T08:34:25.354Z,16.96
2022-10-12T08:39:27.625Z,17.18
2022-10-12T08:45:13.864Z,17.49
2022-10-12T08:50:31.747Z,17.77
2022-10-12T08:55:40.116Z,17.89
2022-10-12T09:00:42.590Z,18.07
2022-10-12T09:05:54.203Z,18.27
2022-10-12T09:11:16.882Z,18.46
2022-10-12T09:16:25.959Z,18.59
2022-10-12T09:21:31.401Z,18.74
2022-10-12T09:26:38.454Z,18.81
2022-10-12T09:31:49.234Z,18.77
2022-10-12T09:36:51.336Z,18.88
2022-10-12T09:41:53.125Z,18.90
2022-10-12T09:46:58.994Z,18.97
2022-10-12T09:52:01.047Z,19.06
2022-10-12T09:57:03.093Z,19.10
2022-10-12T10:02:05.472Z,19.00
2022-10-12T10:07:25.165Z,19.15
2022-10-12T10:12:27.620Z,19.29
2022-10-12T10:17:33.764Z,19.41
2022-10-12T10:22:35.746Z,19.47
2022-10-12T10:27:39.859Z,19.47
2022-10-12T10:32:42.809Z,19.57
2022-10-12T10:37:55.233Z,19.65
2022-10-12T10:43:20.612Z,19.64
2022-10-12T10:48:27.995Z,19.72
2022-10-12T10:53:48.481Z,19.97
2022-10-12T10:58:58.140Z,19.92
2022-10-12T11:04:04.926Z,19.96
2022-10-12T11:09:13.201Z,20.11
2022-10-12T11:14:19.319Z,20.27
2022-10-12T11:19:42.308Z,20.59
2022-10-12T11:25:02.380Z,20.79
2022-10-12T11:30:13.027Z,20.94
2022-10-12T11:35:36.342Z,21.06
2022-10-12T11:41:05.461Z,21.15
2022-10-12T11:46:13.564Z,21.31
2022-10-12T11:51:15.349Z,21.40
2022-10-12T11:56:29.860Z,21.59
2022-10-12T12:01:47.136Z,21.86
2022-10-12T12:06:56.102Z,21.90
2022-10-12T12:12:10.213Z,22.07
2022-10-12T12:17:28.015Z,22.17
2022-10-12T12:22:50.764Z,22.45
2022-10-12T12:28:20.448Z,22.58
2022-10-12T12:33:22.231Z,22.54
2022-10-12T12:38:40.768Z,22.64
2022-10-12T12:43:45.384Z,22.67
2022-10-12T12:48:47.205Z,22.41
2022-10-12T12:53:50.859Z,22.53
2022-10-12T12:59:02.548Z,22.86
2022-10-12T13:04:10.382Z,22.91
2022-10-12T13:09:25.499Z,23.01
2022-10-12T13:15:04.343Z,22.98
2022-10-12T13:20:33.590Z,22.90
2022-10-12T13:25:54.856Z,23.04
2022-10-12T13:30:59.093Z,23.24
2022-10-12T13:36:08.622Z,24.18
2022-10-12T13:41:15.146Z,26.63
2022-10-12T13:46:46.415Z,29.21
2022-10-12T13:51:50.067Z,31.12
2022-10-12T13:57:14.925Z,32.73
2022-10-12T14:02:23.828Z,33.82
2022-10-12T14:07:35.872Z,33.96
2022-10-12T14:12:38.225Z,33.55
2022-10-12T14:17:47.997Z,31.54
2022-10-12T14:22:50.046Z,29.16
2022-10-12T14:27:57.138Z,27.35
2022-10-12T14:33:17.291Z,25.92
2022-10-12T14:38:39.854Z,25.01
2022-10-12T14:43:41.955Z,24.29
2022-10-12T14:48:43.751Z,23.53
2022-10-12T14:53:45.565Z,22.87
2022-10-12T14:58:47.367Z,22.47
2022-10-12T15:03:49.478Z,22.13
2022-10-12T15:08:52.588Z,21.80
2022-10-12T15:13:54.378Z,21.55
2022-10-12T15:18:56.193Z,21.30
2022-10-12T15:23:57.987Z,21.11
2022-10-12T15:28:59.978Z,20.94
2022-10-12T15:34:01.866Z,20.76
2022-10-12T15:39:03.816Z,20.62
2022-10-12T15:44:06.476Z,20.45
2022-10-12T15:49:09.517Z,20.31
2022-10-12T15:54:11.505Z,20.15
2022-10-12T15:59:13.305Z,19.96
2022-10-12T16:04:15.738Z,19.77
2022-10-12T16:09:17.570Z,19.62
2022-10-12T16:14:19.422Z,19.47
2022-10-12T16:19:21.221Z,19.33
2022-10-12T16:24:23.792Z,19.23
2022-10-12T16:29:25.611Z,19.04
2022-10-12T16:34:30.381Z,18.90
2022-10-12T16:39:32.433Z,18.74
2022-10-12T16:44:34.290Z,18.53
2022-10-12T16:49:36.122Z,18.33
2022-10-12T16:54:38.031Z,18.18
2022-10-12T16:59:39.826Z,18.09
2022-10-12T17:04:41.967Z,18.02
2022-10-12T17:09:43.878Z,17.91
2022-10-12T17:14:46.177Z,17.73
2022-10-12T17:19:48.067Z,17.58
2022-10-12T17:24:50.100Z,17.45
2022-10-12T17:29:51.995Z,17.36
2022-10-12T17:34:53.838Z,17.26
2022-10-12T17:39:55.722Z,17.20
2022-10-12T17:44:57.551Z,17.08
2022-10-12T17:49:59.368Z,16.99
2022-10-12T17:55:01.312Z,16.94
2022-10-12T18:00:04.583Z,16.84
2022-10-12T18:05:13.435Z,16.74
2022-10-12T18:10:15.551Z,16.65
2022-10-12T18:15:17.519Z,16.54
2022-10-12T18:20:19.361Z,16.43
2022-10-12T18:25:21.464Z,16.34
2022-10-12T18:30:23.914Z,16.25
2022-10-12T18:35:27.613Z,16.22
2022-10-12T18:40:29.418Z,16.23
2022-10-12T18:45:31.655Z,16.24
2022-10-12T18:50:36.072Z,16.17
2022-10-12T18:55:41.092Z,16.10
2022-10-12T19:00:43.707Z,16.05
2022-10-12T19:05:46.644Z,15.98
2022-10-12T19:10:48.454Z,15.89
2022-10-12T19:15:50.292Z,15.87
2022-10-12T19:20:52.253Z,15.87
2022-10-12T19:25:57.146Z,15.86
2022-10-12T19:30:59.481Z,15.79
2022-10-12T19:36:06.163Z,15.74
2022-10-12T19:41:09.333Z,15.69
2022-10-12T19:46:12.825Z,15.64
2022-10-12T19:51:14.916Z,15.59
2022-10-12T19:56:20.898Z,15.60
2022-10-12T20:01:26.082Z,15.62
2022-10-12T20:06:30.279Z,15.56
2022-10-12T20:11:32.388Z,15.52
2022-10-12T20:16:35.403Z,15.50
2022-10-12T20:21:37.616Z,15.48
2022-10-12T20:26:40.026Z,15.43
2022-10-12T20:31:43.667Z,15.40
2022-10-12T20:36:46.376Z,15.35
2022-10-12T20:41:48.419Z,15.29
2022-10-12T20:46:50.693Z,15.23
2022-10-12T20:51:52.555Z,15.20
2022-10-12T20:56:54.474Z,15.14
2022-10-12T21:01:56.258Z,15.11
2022-10-12T21:06:58.247Z,15.11
2022-10-12T21:12:00.203Z,15.10
2022-10-12T21:17:01.948Z,15.07
2022-10-12T21:22:03.932Z,15.05
2022-10-12T21:27:05.741Z,15.05
2022-10-12T21:32:07.623Z,15.05
2022-10-12T21:37:09.448Z,15.02
2022-10-12T21:42:11.238Z,14.96
2022-10-12T21:47:17.300Z,14.87
2022-10-12T21:52:20.172Z,14.75
2022-10-12T21:57:22.256Z,14.60
2022-10-12T22:02:23.992Z,14.45
2022-10-12T22:07:25.841Z,14.31
2022-10-12T22:12:30.128Z,14.25
2022-10-12T22:17:31.957Z,14.28
2022-10-12T22:22:33.763Z,14.35
2022-10-12T22:27:35.615Z,14.40
2022-10-12T22:32:37.433Z,14.44
2022-10-12T22:37:39.262Z,14.43
2022-10-12T22:42:41.056Z,14.42
2022-10-12T22:47:42.980Z,14.39
2022-10-12T22:52:44.766Z,14.30
2022-10-12T22:57:46.563Z,14.24
2022-10-12T23:02:48.463Z,14.15
2022-10-12T23:07:50.466Z,14.25
2022-10-12T23:12:52.495Z,14.45
2022-10-12T23:17:54.354Z,14.71
2022-10-12T23:22:56.225Z,14.91
2022-10-12T23:27:58.065Z,15.02
2022-10-12T23:32:59.872Z,15.14
2022-10-12T23:38:02.030Z,15.21
2022-10-12T23:43:03.821Z,15.29
2022-10-12T23:48:05.805Z,15.35
2022-10-12T23:53:09.470Z,15.41
2022-10-12T23:58:11.294Z,15.45
